sensor_id;sensor_type;location;lat;lon;timestamp;P1;durP1;ratioP1;P2;durP2;ratioP2
14872;SDS011;7528;48.576;19.122;2023-07-02T00:02:21;15.93;;;14.50;;
14872;SDS011;7528;48.576;19.122;2023-07-02T00:07:24;14.13;;;12.98;;
14872;SDS011;7528;48.576;19.122;2023-07-02T00:12:28;13.27;;;12.23;;
14872;SDS011;7528;48.576;19.122;2023-07-02T00:17:31;12.93;;;11.73;;
14872;SDS011;7528;48.576;19.122;2023-07-02T00:22:33;14.10;;;12.85;;
14872;SDS011;7528;48.576;19.122;2023-07-02T00:27:38;14.65;;;13.38;;
14872;SDS011;7528;48.576;19.122;2023-07-02T00:32:40;19.90;;;14.60;;
14872;SDS011;7528;48.576;19.122;2023-07-02T00:37:43;16.00;;;14.52;;
14872;SDS011;7528;48.576;19.122;2023-07-02T00:42:47;18.17;;;14.02;;
14872;SDS011;7528;48.576;19.122;2023-07-02T00:47:50;25.00;;;14.75;;
14872;SDS011;7528;48.576;19.122;2023-07-02T00:52:52;25.05;;;14.40;;
14872;SDS011;7528;48.576;19.122;2023-07-02T00:57:57;18.00;;;14.57;;
14872;SDS011;7528;48.576;19.122;2023-07-02T01:02:59;25.52;;;15.00;;
14872;SDS011;7528;48.576;19.122;2023-07-02T01:08:04;62.25;;;18.40;;
14872;SDS011;7528;48.576;19.122;2023-07-02T01:13:10;36.67;;;17.23;;
14872;SDS011;7528;48.576;19.122;2023-07-02T01:18:16;21.52;;;16.70;;
14872;SDS011;7528;48.576;19.122;2023-07-02T01:23:20;28.55;;;16.85;;
14872;SDS011;7528;48.576;19.122;2023-07-02T01:28:23;20.73;;;15.07;;
14872;SDS011;7528;48.576;19.122;2023-07-02T01:33:25;21.35;;;15.18;;
14872;SDS011;7528;48.576;19.122;2023-07-02T01:38:29;21.85;;;13.63;;
14872;SDS011;7528;48.576;19.122;2023-07-02T01:43:31;16.02;;;14.25;;
14872;SDS011;7528;48.576;19.122;2023-07-02T01:48:34;16.00;;;13.95;;
14872;SDS011;7528;48.576;19.122;2023-07-02T01:53:38;15.43;;;14.07;;
14872;SDS011;7528;48.576;19.122;2023-07-02T01:58:41;29.70;;;15.15;;
14872;SDS011;7528;48.576;19.122;2023-07-02T02:03:43;15.50;;;14.07;;
14872;SDS011;7528;48.576;19.122;2023-07-02T02:08:47;17.67;;;13.77;;
14872;SDS011;7528;48.576;19.122;2023-07-02T02:13:49;24.02;;;15.25;;
14872;SDS011;7528;48.576;19.122;2023-07-02T02:18:52;14.48;;;13.18;;
14872;SDS011;7528;48.576;19.122;2023-07-02T02:23:56;19.00;;;13.98;;
14872;SDS011;7528;48.576;19.122;2023-07-02T02:29:01;45.05;;;17.30;;
14872;SDS011;7528;48.576;19.122;2023-07-02T02:34:03;18.10;;;16.08;;
14872;SDS011;7528;48.576;19.122;2023-07-02T02:39:08;24.30;;;16.75;;
14872;SDS011;7528;48.576;19.122;2023-07-02T02:44:10;15.93;;;14.40;;
14872;SDS011;7528;48.576;19.122;2023-07-02T02:49:13;19.90;;;14.68;;
14872;SDS011;7528;48.576;19.122;2023-07-02T02:54:17;15.93;;;14.52;;
14872;SDS011;7528;48.576;19.122;2023-07-02T02:59:20;26.45;;;16.65;;
14872;SDS011;7528;48.576;19.122;2023-07-02T03:04:22;16.10;;;14.70;;
14872;SDS011;7528;48.576;19.122;2023-07-02T03:09:27;19.48;;;15.68;;
14872;SDS011;7528;48.576;19.122;2023-07-02T03:14:29;15.27;;;14.07;;
14872;SDS011;7528;48.576;19.122;2023-07-02T03:19:31;13.18;;;12.18;;
14872;SDS011;7528;48.576;19.122;2023-07-02T03:24:35;12.63;;;11.73;;
14872;SDS011;7528;48.576;19.122;2023-07-02T03:29:38;12.13;;;11.23;;
14872;SDS011;7528;48.576;19.122;2023-07-02T03:34:40;11.32;;;10.43;;
14872;SDS011;7528;48.576;19.122;2023-07-02T03:39:44;12.02;;;11.10;;
14872;SDS011;7528;48.576;19.122;2023-07-02T03:44:47;13.80;;;12.65;;
14872;SDS011;7528;48.576;19.122;2023-07-02T03:49:49;13.13;;;12.10;;
14872;SDS011;7528;48.576;19.122;2023-07-02T03:54:53;12.80;;;11.80;;
14872;SDS011;7528;48.576;19.122;2023-07-02T03:59:55;12.90;;;11.90;;
14872;SDS011;7528;48.576;19.122;2023-07-02T04:04:58;13.60;;;12.50;;
14872;SDS011;7528;48.576;19.122;2023-07-02T04:10:01;13.65;;;12.45;;
14872;SDS011;7528;48.576;19.122;2023-07-02T04:15:04;13.35;;;12.15;;
14872;SDS011;7528;48.576;19.122;2023-07-02T04:20:09;13.32;;;12.27;;
14872;SDS011;7528;48.576;19.122;2023-07-02T04:25:15;13.60;;;12.40;;
14872;SDS011;7528;48.576;19.122;2023-07-02T04:30:18;12.75;;;11.75;;
14872;SDS011;7528;48.576;19.122;2023-07-02T04:35:21;12.85;;;11.85;;
14872;SDS011;7528;48.576;19.122;2023-07-02T04:40:25;12.27;;;11.23;;
14872;SDS011;7528;48.576;19.122;2023-07-02T04:45:27;12.55;;;11.55;;
14872;SDS011;7528;48.576;19.122;2023-07-02T04:50:36;12.45;;;11.25;;
14872;SDS011;7528;48.576;19.122;2023-07-02T04:55:40;13.27;;;12.23;;
14872;SDS011;7528;48.576;19.122;2023-07-02T05:00:43;15.07;;;13.73;;
14872;SDS011;7528;48.576;19.122;2023-07-02T05:05:45;14.25;;;12.95;;
14872;SDS011;7528;48.576;19.122;2023-07-02T05:10:49;15.95;;;14.50;;
14872;SDS011;7528;48.576;19.122;2023-07-02T05:15:51;14.80;;;13.50;;
14872;SDS011;7528;48.576;19.122;2023-07-02T05:20:54;15.23;;;13.77;;
14872;SDS011;7528;48.576;19.122;2023-07-02T05:25:58;14.55;;;13.25;;
14872;SDS011;7528;48.576;19.122;2023-07-02T05:31:00;14.80;;;13.38;;
14872;SDS011;7528;48.576;19.122;2023-07-02T05:36:02;14.18;;;12.98;;
14872;SDS011;7528;48.576;19.122;2023-07-02T05:41:06;14.63;;;13.32;;
14872;SDS011;7528;48.576;19.122;2023-07-02T05:46:09;14.10;;;12.90;;
14872;SDS011;7528;48.576;19.122;2023-07-02T05:51:12;14.60;;;13.40;;
14872;SDS011;7528;48.576;19.122;2023-07-02T05:56:16;14.00;;;12.90;;
14872;SDS011;7528;48.576;19.122;2023-07-02T06:01:19;14.02;;;12.93;;
14872;SDS011;7528;48.576;19.122;2023-07-02T06:06:21;13.23;;;12.02;;
14872;SDS011;7528;48.576;19.122;2023-07-02T06:11:26;11.82;;;10.93;;
14872;SDS011;7528;48.576;19.122;2023-07-02T06:16:28;12.13;;;11.13;;
14872;SDS011;7528;48.576;19.122;2023-07-02T06:21:30;12.60;;;11.50;;
14872;SDS011;7528;48.576;19.122;2023-07-02T06:26:35;13.30;;;12.20;;
14872;SDS011;7528;48.576;19.122;2023-07-02T06:31:37;14.18;;;13.05;;
14872;SDS011;7528;48.576;19.122;2023-07-02T06:36:39;13.57;;;12.48;;
14872;SDS011;7528;48.576;19.122;2023-07-02T06:41:44;14.07;;;12.98;;
14872;SDS011;7528;48.576;19.122;2023-07-02T06:46:46;14.50;;;13.40;;
14872;SDS011;7528;48.576;19.122;2023-07-02T06:51:48;14.30;;;13.05;;
14872;SDS011;7528;48.576;19.122;2023-07-02T06:56:59;15.20;;;13.75;;
14872;SDS011;7528;48.576;19.122;2023-07-02T07:02:02;14.68;;;13.38;;
14872;SDS011;7528;48.576;19.122;2023-07-02T07:07:05;14.55;;;13.35;;
14872;SDS011;7528;48.576;19.122;2023-07-02T07:12:09;13.82;;;12.63;;
14872;SDS011;7528;48.576;19.122;2023-07-02T07:17:13;15.07;;;13.88;;
14872;SDS011;7528;48.576;19.122;2023-07-02T07:22:15;14.38;;;13.27;;
14872;SDS011;7528;48.576;19.122;2023-07-02T07:27:19;11.27;;;10.38;;
14872;SDS011;7528;48.576;19.122;2023-07-02T07:38:17;6.78;;;6.18;;
14872;SDS011;7528;48.576;19.122;2023-07-02T07:43:21;6.57;;;5.97;;
14872;SDS011;7528;48.576;19.122;2023-07-02T07:48:23;6.57;;;5.85;;
14872;SDS011;7528;48.576;19.122;2023-07-02T07:53:26;6.22;;;5.63;;
14872;SDS011;7528;48.576;19.122;2023-07-02T07:58:30;6.32;;;5.55;;
14872;SDS011;7528;48.576;19.122;2023-07-02T08:03:33;7.25;;;5.45;;
14872;SDS011;7528;48.576;19.122;2023-07-02T08:08:38;6.30;;;5.70;;
14872;SDS011;7528;48.576;19.122;2023-07-02T08:13:43;5.78;;;5.18;;
14872;SDS011;7528;48.576;19.122;2023-07-02T08:18:46;5.63;;;5.13;;
14872;SDS011;7528;48.576;19.122;2023-07-02T08:23:48;6.32;;;5.50;;
14872;SDS011;7528;48.576;19.122;2023-07-02T08:28:52;6.47;;;5.35;;
14872;SDS011;7528;48.576;19.122;2023-07-02T08:33:55;6.10;;;5.50;;
14872;SDS011;7528;48.576;19.122;2023-07-02T08:38:58;6.20;;;5.43;;
14872;SDS011;7528;48.576;19.122;2023-07-02T08:44:02;6.90;;;5.43;;
14872;SDS011;7528;48.576;19.122;2023-07-02T08:49:05;6.07;;;5.45;;
14872;SDS011;7528;48.576;19.122;2023-07-02T08:54:08;6.60;;;5.60;;
14872;SDS011;7528;48.576;19.122;2023-07-02T08:59:12;5.90;;;5.40;;
14872;SDS011;7528;48.576;19.122;2023-07-02T09:04:16;5.90;;;5.30;;
14872;SDS011;7528;48.576;19.122;2023-07-02T09:09:23;7.68;;;5.60;;
14872;SDS011;7528;48.576;19.122;2023-07-02T09:14:28;6.05;;;5.45;;
14872;SDS011;7528;48.576;19.122;2023-07-02T09:19:32;7.28;;;5.88;;
14872;SDS011;7528;48.576;19.122;2023-07-02T09:24:35;10.60;;;6.40;;
14872;SDS011;7528;48.576;19.122;2023-07-02T09:29:39;6.95;;;6.00;;
14872;SDS011;7528;48.576;19.122;2023-07-02T09:34:41;7.03;;;6.05;;
14872;SDS011;7528;48.576;19.122;2023-07-02T09:39:44;6.18;;;5.57;;
14872;SDS011;7528;48.576;19.122;2023-07-02T09:44:52;6.65;;;5.72;;
14872;SDS011;7528;48.576;19.122;2023-07-02T09:49:58;5.97;;;5.40;;
14872;SDS011;7528;48.576;19.122;2023-07-02T09:55:07;6.45;;;5.63;;
14872;SDS011;7528;48.576;19.122;2023-07-02T10:00:13;5.65;;;5.15;;
14872;SDS011;7528;48.576;19.122;2023-07-02T10:05:26;5.55;;;5.05;;
14872;SDS011;7528;48.576;19.122;2023-07-02T10:10:30;5.03;;;4.63;;
14872;SDS011;7528;48.576;19.122;2023-07-02T10:20:41;4.72;;;4.20;;
14872;SDS011;7528;48.576;19.122;2023-07-02T10:25:44;4.93;;;4.43;;
14872;SDS011;7528;48.576;19.122;2023-07-02T10:30:46;4.57;;;4.18;;
14872;SDS011;7528;48.576;19.122;2023-07-02T10:35:50;4.35;;;3.90;;
14872;SDS011;7528;48.576;19.122;2023-07-02T10:40:56;4.50;;;4.05;;
14872;SDS011;7528;48.576;19.122;2023-07-02T10:45:59;4.28;;;3.80;;
14872;SDS011;7528;48.576;19.122;2023-07-02T10:51:12;5.35;;;3.80;;
14872;SDS011;7528;48.576;19.122;2023-07-02T10:56:17;4.22;;;3.70;;
14872;SDS011;7528;48.576;19.122;2023-07-02T11:01:23;5.45;;;3.70;;
14872;SDS011;7528;48.576;19.122;2023-07-02T11:06:29;5.32;;;3.80;;
14872;SDS011;7528;48.576;19.122;2023-07-02T11:11:48;4.22;;;3.83;;
14872;SDS011;7528;48.576;19.122;2023-07-02T11:17:05;3.60;;;3.17;;
14872;SDS011;7528;48.576;19.122;2023-07-02T11:22:10;3.78;;;3.30;;
14872;SDS011;7528;48.576;19.122;2023-07-02T11:27:20;3.00;;;2.70;;
14872;SDS011;7528;48.576;19.122;2023-07-02T11:32:23;3.33;;;3.00;;
14872;SDS011;7528;48.576;19.122;2023-07-02T11:37:28;3.28;;;2.88;;
14872;SDS011;7528;48.576;19.122;2023-07-02T11:42:30;2.90;;;2.70;;
14872;SDS011;7528;48.576;19.122;2023-07-02T11:47:33;2.75;;;2.22;;
14872;SDS011;7528;48.576;19.122;2023-07-02T11:52:37;2.83;;;2.30;;
14872;SDS011;7528;48.576;19.122;2023-07-02T12:02:52;1.80;;;1.70;;
14872;SDS011;7528;48.576;19.122;2023-07-02T12:07:57;1.83;;;1.40;;
14872;SDS011;7528;48.576;19.122;2023-07-02T12:13:00;1.98;;;1.35;;
14872;SDS011;7528;48.576;19.122;2023-07-02T12:18:04;2.10;;;1.20;;
14872;SDS011;7528;48.576;19.122;2023-07-02T12:23:09;1.30;;;1.20;;
14872;SDS011;7528;48.576;19.122;2023-07-02T12:28:12;1.10;;;1.05;;
14872;SDS011;7528;48.576;19.122;2023-07-02T12:33:14;1.45;;;1.13;;
14872;SDS011;7528;48.576;19.122;2023-07-02T12:38:18;1.33;;;1.23;;
14872;SDS011;7528;48.576;19.122;2023-07-02T12:43:20;4.05;;;1.40;;
14872;SDS011;7528;48.576;19.122;2023-07-02T12:48:23;1.85;;;1.35;;
14872;SDS011;7528;48.576;19.122;2023-07-02T12:53:28;1.65;;;1.40;;
14872;SDS011;7528;48.576;19.122;2023-07-02T12:58:31;1.50;;;1.40;;
14872;SDS011;7528;48.576;19.122;2023-07-02T13:03:33;1.50;;;1.40;;
14872;SDS011;7528;48.576;19.122;2023-07-02T13:08:37;1.60;;;1.50;;
14872;SDS011;7528;48.576;19.122;2023-07-02T13:13:39;1.48;;;1.38;;
14872;SDS011;7528;48.576;19.122;2023-07-02T13:18:42;2.22;;;1.63;;
14872;SDS011;7528;48.576;19.122;2023-07-02T13:23:46;1.95;;;1.60;;
14872;SDS011;7528;48.576;19.122;2023-07-02T13:28:49;2.03;;;1.58;;
14872;SDS011;7528;48.576;19.122;2023-07-02T13:33:51;1.67;;;1.30;;
14872;SDS011;7528;48.576;19.122;2023-07-02T13:44:32;1.50;;;1.40;;
14872;SDS011;7528;48.576;19.122;2023-07-02T13:49:34;2.15;;;1.65;;
14872;SDS011;7528;48.576;19.122;2023-07-02T13:54:38;1.70;;;1.60;;
14872;SDS011;7528;48.576;19.122;2023-07-02T13:59:42;1.70;;;1.60;;
14872;SDS011;7528;48.576;19.122;2023-07-02T14:04:44;4.72;;;1.88;;
14872;SDS011;7528;48.576;19.122;2023-07-02T18:10:49;3.03;;;1.70;;
14872;SDS011;7528;48.576;19.122;2023-07-02T18:15:52;1.85;;;1.70;;
14872;SDS011;7528;48.576;19.122;2023-07-02T18:20:55;1.80;;;1.70;;
14872;SDS011;7528;48.576;19.122;2023-07-02T18:25:59;1.80;;;1.70;;
14872;SDS011;7528;48.576;19.122;2023-07-02T18:31:03;2.63;;;1.70;;
14872;SDS011;7528;48.576;19.122;2023-07-02T18:36:08;2.90;;;1.63;;
14872;SDS011;7528;48.576;19.122;2023-07-02T18:41:12;2.25;;;1.67;;
14872;SDS011;7528;48.576;19.122;2023-07-02T18:46:15;1.92;;;1.70;;
14872;SDS011;7528;48.576;19.122;2023-07-02T18:51:17;2.53;;;2.08;;
14872;SDS011;7528;48.576;19.122;2023-07-02T18:56:21;3.33;;;1.80;;
14872;SDS011;7528;48.576;19.122;2023-07-02T19:01:23;1.95;;;1.70;;
14872;SDS011;7528;48.576;19.122;2023-07-02T19:06:26;1.73;;;1.60;;
14872;SDS011;7528;48.576;19.122;2023-07-02T19:11:29;2.03;;;1.73;;
14872;SDS011;7528;48.576;19.122;2023-07-02T19:16:32;3.60;;;1.75;;
14872;SDS011;7528;48.576;19.122;2023-07-02T19:21:35;2.95;;;2.00;;
14872;SDS011;7528;48.576;19.122;2023-07-02T19:26:39;1.77;;;1.65;;
14872;SDS011;7528;48.576;19.122;2023-07-02T19:31:41;2.05;;;1.80;;
14872;SDS011;7528;48.576;19.122;2023-07-02T19:36:45;3.58;;;1.88;;
14872;SDS011;7528;48.576;19.122;2023-07-02T19:41:50;3.08;;;1.90;;
14872;SDS011;7528;48.576;19.122;2023-07-02T19:46:54;1.95;;;1.80;;
14872;SDS011;7528;48.576;19.122;2023-07-02T19:51:56;3.72;;;2.28;;
14872;SDS011;7528;48.576;19.122;2023-07-02T19:57:00;2.50;;;2.30;;
14872;SDS011;7528;48.576;19.122;2023-07-02T20:02:03;2.58;;;2.38;;
14872;SDS011;7528;48.576;19.122;2023-07-02T20:07:05;2.35;;;1.90;;
14872;SDS011;7528;48.576;19.122;2023-07-02T20:12:09;2.25;;;2.05;;
14872;SDS011;7528;48.576;19.122;2023-07-02T20:17:14;2.53;;;1.83;;
14872;SDS011;7528;48.576;19.122;2023-07-02T20:22:19;2.65;;;2.22;;
14872;SDS011;7528;48.576;19.122;2023-07-02T20:27:24;3.05;;;2.00;;
14872;SDS011;7528;48.576;19.122;2023-07-02T20:32:26;2.55;;;2.10;;
14872;SDS011;7528;48.576;19.122;2023-07-02T20:37:29;2.15;;;1.95;;
14872;SDS011;7528;48.576;19.122;2023-07-02T20:42:34;2.63;;;2.05;;
14872;SDS011;7528;48.576;19.122;2023-07-02T20:47:38;2.60;;;2.10;;
14872;SDS011;7528;48.576;19.122;2023-07-02T20:52:43;2.50;;;2.20;;
14872;SDS011;7528;48.576;19.122;2023-07-02T20:57:47;2.42;;;2.22;;
14872;SDS011;7528;48.576;19.122;2023-07-02T21:02:49;2.58;;;2.38;;
14872;SDS011;7528;48.576;19.122;2023-07-02T21:07:52;2.92;;;2.38;;
14872;SDS011;7528;48.576;19.122;2023-07-02T21:12:57;2.72;;;2.28;;
14872;SDS011;7528;48.576;19.122;2023-07-02T21:18:00;4.70;;;2.60;;
14872;SDS011;7528;48.576;19.122;2023-07-02T21:23:02;3.22;;;2.47;;
14872;SDS011;7528;48.576;19.122;2023-07-02T21:28:06;2.65;;;2.42;;
14872;SDS011;7528;48.576;19.122;2023-07-02T21:33:09;2.92;;;2.40;;
14872;SDS011;7528;48.576;19.122;2023-07-02T21:38:11;4.07;;;2.42;;
14872;SDS011;7528;48.576;19.122;2023-07-02T21:43:16;4.03;;;2.30;;
14872;SDS011;7528;48.576;19.122;2023-07-02T21:48:18;3.70;;;2.70;;
14872;SDS011;7528;48.576;19.122;2023-07-02T21:53:21;3.55;;;2.20;;
14872;SDS011;7528;48.576;19.122;2023-07-02T21:58:24;3.03;;;2.50;;
14872;SDS011;7528;48.576;19.122;2023-07-02T22:03:27;3.10;;;2.80;;
14872;SDS011;7528;48.576;19.122;2023-07-02T22:08:29;3.90;;;3.08;;
14872;SDS011;7528;48.576;19.122;2023-07-02T22:13:33;4.28;;;3.10;;
14872;SDS011;7528;48.576;19.122;2023-07-02T22:18:36;2.63;;;2.42;;
14872;SDS011;7528;48.576;19.122;2023-07-02T22:23:38;3.67;;;2.80;;
14872;SDS011;7528;48.576;19.122;2023-07-02T22:28:44;3.83;;;2.60;;
14872;SDS011;7528;48.576;19.122;2023-07-02T22:33:47;3.00;;;2.45;;
14872;SDS011;7528;48.576;19.122;2023-07-02T22:38:49;3.15;;;2.85;;
14872;SDS011;7528;48.576;19.122;2023-07-02T22:43:53;3.35;;;2.70;;
14872;SDS011;7528;48.576;19.122;2023-07-02T22:48:55;3.15;;;2.80;;
14872;SDS011;7528;48.576;19.122;2023-07-02T22:53:58;3.75;;;2.97;;
14872;SDS011;7528;48.576;19.122;2023-07-02T22:59:02;5.35;;;2.67;;
14872;SDS011;7528;48.576;19.122;2023-07-02T23:04:04;2.80;;;2.58;;
14872;SDS011;7528;48.576;19.122;2023-07-02T23:09:07;4.35;;;2.72;;
14872;SDS011;7528;48.576;19.122;2023-07-02T23:14:10;4.60;;;3.13;;
14872;SDS011;7528;48.576;19.122;2023-07-02T23:19:13;3.17;;;2.53;;
14872;SDS011;7528;48.576;19.122;2023-07-02T23:24:15;3.50;;;2.90;;
14872;SDS011;7528;48.576;19.122;2023-07-02T23:29:21;4.32;;;3.00;;
14872;SDS011;7528;48.576;19.122;2023-07-02T23:34:25;3.85;;;3.10;;
14872;SDS011;7528;48.576;19.122;2023-07-02T23:39:27;3.00;;;2.70;;
14872;SDS011;7528;48.576;19.122;2023-07-02T23:44:31;4.22;;;2.80;;
14872;SDS011;7528;48.576;19.122;2023-07-02T23:49:34;3.55;;;2.75;;
14872;SDS011;7528;48.576;19.122;2023-07-02T23:54:36;3.88;;;2.90;;
14872;SDS011;7528;48.576;19.122;2023-07-02T23:59:41;3.47;;;2.70;;
